sensor_id;sensor_type;location;lat;lon;timestamp;P1;durP1;ratioP1;P2;durP2;ratioP2
27796;SDS011;15177;50.844;4.412;2022-10-15T00:02:08;34.92;;;19.48;;
27796;SDS011;15177;50.844;4.412;2022-10-15T00:04:34;33.95;;;20.67;;
27796;SDS011;15177;50.844;4.412;2022-10-15T00:07:00;28.17;;;18.27;;
27796;SDS011;15177;50.844;4.412;2022-10-15T00:09:26;35.38;;;19.30;;
27796;SDS011;15177;50.844;4.412;2022-10-15T00:11:52;31.00;;;18.83;;
27796;SDS011;15177;50.844;4.412;2022-10-15T00:14:17;32.03;;;19.08;;
27796;SDS011;15177;50.844;4.412;2022-10-15T00:16:44;35.53;;;20.10;;
27796;SDS011;15177;50.844;4.412;2022-10-15T00:19:10;34.15;;;19.85;;
27796;SDS011;15177;50.844;4.412;2022-10-15T00:21:36;29.42;;;19.55;;
27796;SDS011;15177;50.844;4.412;2022-10-15T00:24:02;38.17;;;20.80;;
27796;SDS011;15177;50.844;4.412;2022-10-15T00:26:28;33.55;;;19.75;;
27796;SDS011;15177;50.844;4.412;2022-10-15T00:29:01;36.47;;;20.48;;
27796;SDS011;15177;50.844;4.412;2022-10-15T00:31:28;32.45;;;18.83;;
27796;SDS011;15177;50.844;4.412;2022-10-15T00:33:56;31.45;;;19.40;;
27796;SDS011;15177;50.844;4.412;2022-10-15T00:36:25;30.23;;;18.95;;
27796;SDS011;15177;50.844;4.412;2022-10-15T00:38:52;32.95;;;19.60;;
27796;SDS011;15177;50.844;4.412;2022-10-15T00:41:40;27.73;;;17.58;;
27796;SDS011;15177;50.844;4.412;2022-10-15T00:46:56;32.47;;;18.33;;
27796;SDS011;15177;50.844;4.412;2022-10-15T00:49:34;32.63;;;18.38;;
27796;SDS011;15177;50.844;4.412;2022-10-15T00:52:16;30.38;;;16.73;;
27796;SDS011;15177;50.844;4.412;2022-10-15T00:54:47;27.65;;;17.25;;
27796;SDS011;15177;50.844;4.412;2022-10-15T00:57:16;30.15;;;18.60;;
27796;SDS011;15177;50.844;4.412;2022-10-15T00:59:46;30.70;;;17.10;;
27796;SDS011;15177;50.844;4.412;2022-10-15T01:02:14;29.90;;;18.05;;
27796;SDS011;15177;50.844;4.412;2022-10-15T01:04:43;32.28;;;18.92;;
27796;SDS011;15177;50.844;4.412;2022-10-15T01:07:10;28.42;;;17.80;;
27796;SDS011;15177;50.844;4.412;2022-10-15T01:09:36;28.58;;;18.40;;
27796;SDS011;15177;50.844;4.412;2022-10-15T01:12:03;26.33;;;17.98;;
27796;SDS011;15177;50.844;4.412;2022-10-15T01:14:42;31.50;;;18.17;;
27796;SDS011;15177;50.844;4.412;2022-10-15T01:22:42;29.15;;;18.23;;
27796;SDS011;15177;50.844;4.412;2022-10-15T01:31:08;29.77;;;17.10;;
27796;SDS011;15177;50.844;4.412;2022-10-15T01:33:43;27.83;;;16.73;;
27796;SDS011;15177;50.844;4.412;2022-10-15T01:36:48;29.33;;;17.50;;
27796;SDS011;15177;50.844;4.412;2022-10-15T01:39:21;26.40;;;16.52;;
27796;SDS011;15177;50.844;4.412;2022-10-15T01:42:06;30.00;;;17.52;;
27796;SDS011;15177;50.844;4.412;2022-10-15T01:44:43;28.50;;;16.73;;
27796;SDS011;15177;50.844;4.412;2022-10-15T01:47:16;30.88;;;17.85;;
27796;SDS011;15177;50.844;4.412;2022-10-15T01:49:46;27.60;;;17.38;;
27796;SDS011;15177;50.844;4.412;2022-10-15T01:52:17;29.38;;;16.65;;
27796;SDS011;15177;50.844;4.412;2022-10-15T01:54:48;28.58;;;17.30;;
27796;SDS011;15177;50.844;4.412;2022-10-15T01:57:16;33.30;;;18.80;;
27796;SDS011;15177;50.844;4.412;2022-10-15T01:59:43;26.65;;;15.70;;
27796;SDS011;15177;50.844;4.412;2022-10-15T02:02:09;29.00;;;17.88;;
27796;SDS011;15177;50.844;4.412;2022-10-15T02:04:35;28.42;;;17.38;;
27796;SDS011;15177;50.844;4.412;2022-10-15T02:09:42;27.83;;;16.65;;
27796;SDS011;15177;50.844;4.412;2022-10-15T02:18:17;33.42;;;18.13;;
27796;SDS011;15177;50.844;4.412;2022-10-15T02:23:34;31.10;;;18.23;;
27796;SDS011;15177;50.844;4.412;2022-10-15T02:26:09;36.33;;;20.10;;
27796;SDS011;15177;50.844;4.412;2022-10-15T02:28:37;37.50;;;18.92;;
27796;SDS011;15177;50.844;4.412;2022-10-15T02:31:05;43.10;;;20.98;;
27796;SDS011;15177;50.844;4.412;2022-10-15T02:33:33;33.85;;;18.95;;
27796;SDS011;15177;50.844;4.412;2022-10-15T02:36:01;38.53;;;19.80;;
27796;SDS011;15177;50.844;4.412;2022-10-15T02:38:26;32.15;;;18.30;;
27796;SDS011;15177;50.844;4.412;2022-10-15T02:40:55;31.85;;;18.15;;
27796;SDS011;15177;50.844;4.412;2022-10-15T02:43:21;32.60;;;18.83;;
27796;SDS011;15177;50.844;4.412;2022-10-15T02:45:48;37.00;;;18.85;;
27796;SDS011;15177;50.844;4.412;2022-10-15T02:48:14;31.45;;;18.67;;
27796;SDS011;15177;50.844;4.412;2022-10-15T02:50:40;31.83;;;18.05;;
27796;SDS011;15177;50.844;4.412;2022-10-15T02:53:05;28.98;;;16.98;;
27796;SDS011;15177;50.844;4.412;2022-10-15T02:55:31;32.90;;;18.25;;
27796;SDS011;15177;50.844;4.412;2022-10-15T02:57:57;29.92;;;16.88;;
27796;SDS011;15177;50.844;4.412;2022-10-15T03:00:23;26.45;;;16.83;;
27796;SDS011;15177;50.844;4.412;2022-10-15T03:02:49;27.70;;;16.33;;
27796;SDS011;15177;50.844;4.412;2022-10-15T03:05:14;29.17;;;16.80;;
27796;SDS011;15177;50.844;4.412;2022-10-15T03:07:40;29.38;;;16.58;;
27796;SDS011;15177;50.844;4.412;2022-10-15T03:10:06;28.60;;;16.45;;
27796;SDS011;15177;50.844;4.412;2022-10-15T03:12:32;29.00;;;16.80;;
27796;SDS011;15177;50.844;4.412;2022-10-15T03:14:58;28.20;;;17.10;;
27796;SDS011;15177;50.844;4.412;2022-10-15T03:17:25;34.70;;;16.98;;
27796;SDS011;15177;50.844;4.412;2022-10-15T03:19:50;27.40;;;16.13;;
27796;SDS011;15177;50.844;4.412;2022-10-15T03:22:16;28.13;;;16.42;;
27796;SDS011;15177;50.844;4.412;2022-10-15T03:24:43;32.45;;;17.33;;
27796;SDS011;15177;50.844;4.412;2022-10-15T03:27:08;31.02;;;16.58;;
27796;SDS011;15177;50.844;4.412;2022-10-15T03:29:34;29.63;;;16.85;;
27796;SDS011;15177;50.844;4.412;2022-10-15T03:32:00;30.58;;;17.58;;
27796;SDS011;15177;50.844;4.412;2022-10-15T03:34:25;30.20;;;17.17;;
27796;SDS011;15177;50.844;4.412;2022-10-15T03:36:52;29.45;;;17.08;;
27796;SDS011;15177;50.844;4.412;2022-10-15T03:39:18;32.30;;;17.88;;
27796;SDS011;15177;50.844;4.412;2022-10-15T03:41:43;33.70;;;18.15;;
27796;SDS011;15177;50.844;4.412;2022-10-15T03:44:09;35.03;;;18.13;;
27796;SDS011;15177;50.844;4.412;2022-10-15T03:46:35;32.78;;;18.50;;
27796;SDS011;15177;50.844;4.412;2022-10-15T03:49:00;36.25;;;18.95;;
27796;SDS011;15177;50.844;4.412;2022-10-15T03:51:26;34.15;;;19.23;;
27796;SDS011;15177;50.844;4.412;2022-10-15T03:53:52;32.83;;;18.17;;
27796;SDS011;15177;50.844;4.412;2022-10-15T03:56:18;28.17;;;16.85;;
27796;SDS011;15177;50.844;4.412;2022-10-15T03:58:44;34.53;;;19.42;;
27796;SDS011;15177;50.844;4.412;2022-10-15T04:01:12;40.20;;;18.15;;
27796;SDS011;15177;50.844;4.412;2022-10-15T04:03:40;30.13;;;16.90;;
27796;SDS011;15177;50.844;4.412;2022-10-15T04:06:06;29.17;;;17.45;;
27796;SDS011;15177;50.844;4.412;2022-10-15T04:08:31;28.25;;;16.52;;
27796;SDS011;15177;50.844;4.412;2022-10-15T04:10:57;27.35;;;16.02;;
27796;SDS011;15177;50.844;4.412;2022-10-15T04:13:26;23.80;;;14.93;;
27796;SDS011;15177;50.844;4.412;2022-10-15T04:15:52;26.85;;;15.70;;
27796;SDS011;15177;50.844;4.412;2022-10-15T04:18:18;26.35;;;15.35;;
27796;SDS011;15177;50.844;4.412;2022-10-15T04:20:47;22.35;;;13.13;;
27796;SDS011;15177;50.844;4.412;2022-10-15T04:23:13;22.50;;;13.27;;
27796;SDS011;15177;50.844;4.412;2022-10-15T04:25:39;23.90;;;14.23;;
27796;SDS011;15177;50.844;4.412;2022-10-15T04:28:05;23.85;;;13.18;;
27796;SDS011;15177;50.844;4.412;2022-10-15T04:30:31;22.08;;;12.25;;
27796;SDS011;15177;50.844;4.412;2022-10-15T04:32:56;23.85;;;12.60;;
27796;SDS011;15177;50.844;4.412;2022-10-15T04:35:22;23.30;;;12.27;;
27796;SDS011;15177;50.844;4.412;2022-10-15T04:37:48;19.35;;;11.77;;
27796;SDS011;15177;50.844;4.412;2022-10-15T04:40:13;21.48;;;11.98;;
27796;SDS011;15177;50.844;4.412;2022-10-15T04:42:40;24.95;;;11.60;;
27796;SDS011;15177;50.844;4.412;2022-10-15T04:45:06;20.52;;;12.02;;
27796;SDS011;15177;50.844;4.412;2022-10-15T04:47:32;20.08;;;11.63;;
27796;SDS011;15177;50.844;4.412;2022-10-15T04:49:58;21.52;;;10.88;;
27796;SDS011;15177;50.844;4.412;2022-10-15T04:52:23;18.70;;;11.15;;
27796;SDS011;15177;50.844;4.412;2022-10-15T04:54:49;17.80;;;10.48;;
27796;SDS011;15177;50.844;4.412;2022-10-15T04:57:14;19.30;;;10.90;;
27796;SDS011;15177;50.844;4.412;2022-10-15T04:59:40;18.25;;;10.10;;
27796;SDS011;15177;50.844;4.412;2022-10-15T05:02:07;18.02;;;9.93;;
27796;SDS011;15177;50.844;4.412;2022-10-15T05:04:33;19.20;;;10.45;;
27796;SDS011;15177;50.844;4.412;2022-10-15T05:06:58;18.75;;;9.70;;
27796;SDS011;15177;50.844;4.412;2022-10-15T05:09:24;15.40;;;8.77;;
27796;SDS011;15177;50.844;4.412;2022-10-15T05:11:50;18.50;;;10.23;;
27796;SDS011;15177;50.844;4.412;2022-10-15T05:14:15;16.30;;;8.88;;
27796;SDS011;15177;50.844;4.412;2022-10-15T05:16:41;15.60;;;8.15;;
27796;SDS011;15177;50.844;4.412;2022-10-15T05:19:08;13.23;;;7.97;;
27796;SDS011;15177;50.844;4.412;2022-10-15T05:21:35;18.30;;;8.77;;
27796;SDS011;15177;50.844;4.412;2022-10-15T05:24:01;14.02;;;8.05;;
27796;SDS011;15177;50.844;4.412;2022-10-15T05:26:29;14.02;;;7.78;;
27796;SDS011;15177;50.844;4.412;2022-10-15T05:28:56;15.82;;;8.32;;
27796;SDS011;15177;50.844;4.412;2022-10-15T05:31:24;13.50;;;7.60;;
27796;SDS011;15177;50.844;4.412;2022-10-15T05:33:52;14.73;;;8.10;;
27796;SDS011;15177;50.844;4.412;2022-10-15T05:36:19;13.43;;;7.22;;
27796;SDS011;15177;50.844;4.412;2022-10-15T05:38:51;15.18;;;8.13;;
27796;SDS011;15177;50.844;4.412;2022-10-15T05:41:18;13.32;;;7.05;;
27796;SDS011;15177;50.844;4.412;2022-10-15T05:43:50;13.05;;;6.95;;
27796;SDS011;15177;50.844;4.412;2022-10-15T05:46:17;12.55;;;6.70;;
27796;SDS011;15177;50.844;4.412;2022-10-15T05:48:47;11.80;;;6.68;;
27796;SDS011;15177;50.844;4.412;2022-10-15T05:51:17;14.50;;;7.18;;
27796;SDS011;15177;50.844;4.412;2022-10-15T05:53:42;11.07;;;6.47;;
27796;SDS011;15177;50.844;4.412;2022-10-15T05:56:10;11.65;;;6.88;;
27796;SDS011;15177;50.844;4.412;2022-10-15T05:58:37;12.77;;;7.03;;
27796;SDS011;15177;50.844;4.412;2022-10-15T06:01:04;11.65;;;6.82;;
27796;SDS011;15177;50.844;4.412;2022-10-15T06:03:31;14.55;;;7.32;;
27796;SDS011;15177;50.844;4.412;2022-10-15T06:05:57;11.57;;;6.50;;
27796;SDS011;15177;50.844;4.412;2022-10-15T06:08:22;15.50;;;6.90;;
27796;SDS011;15177;50.844;4.412;2022-10-15T06:10:48;13.07;;;6.95;;
27796;SDS011;15177;50.844;4.412;2022-10-15T06:13:14;14.23;;;7.05;;
27796;SDS011;15177;50.844;4.412;2022-10-15T06:15:41;11.90;;;6.15;;
27796;SDS011;15177;50.844;4.412;2022-10-15T06:18:08;12.85;;;6.05;;
27796;SDS011;15177;50.844;4.412;2022-10-15T06:20:35;12.73;;;6.35;;
27796;SDS011;15177;50.844;4.412;2022-10-15T06:23:02;10.07;;;5.80;;
27796;SDS011;15177;50.844;4.412;2022-10-15T06:25:28;12.23;;;6.22;;
27796;SDS011;15177;50.844;4.412;2022-10-15T06:27:55;12.20;;;6.18;;
27796;SDS011;15177;50.844;4.412;2022-10-15T06:30:24;13.60;;;6.93;;
27796;SDS011;15177;50.844;4.412;2022-10-15T06:32:50;10.57;;;5.32;;
27796;SDS011;15177;50.844;4.412;2022-10-15T06:35:17;11.32;;;5.82;;
27796;SDS011;15177;50.844;4.412;2022-10-15T06:37:44;10.00;;;5.88;;
27796;SDS011;15177;50.844;4.412;2022-10-15T06:40:10;13.93;;;5.45;;
27796;SDS011;15177;50.844;4.412;2022-10-15T06:42:36;10.38;;;6.20;;
27796;SDS011;15177;50.844;4.412;2022-10-15T06:45:03;9.00;;;5.20;;
27796;SDS011;15177;50.844;4.412;2022-10-15T06:47:29;10.27;;;5.07;;
27796;SDS011;15177;50.844;4.412;2022-10-15T06:49:55;11.20;;;6.18;;
27796;SDS011;15177;50.844;4.412;2022-10-15T06:52:21;12.05;;;6.32;;
27796;SDS011;15177;50.844;4.412;2022-10-15T06:54:47;12.40;;;6.38;;
27796;SDS011;15177;50.844;4.412;2022-10-15T06:57:13;10.57;;;5.43;;
27796;SDS011;15177;50.844;4.412;2022-10-15T06:59:39;10.43;;;4.88;;
27796;SDS011;15177;50.844;4.412;2022-10-15T07:02:05;10.25;;;5.95;;
27796;SDS011;15177;50.844;4.412;2022-10-15T07:04:31;10.15;;;5.60;;
27796;SDS011;15177;50.844;4.412;2022-10-15T07:06:56;10.90;;;5.72;;
27796;SDS011;15177;50.844;4.412;2022-10-15T07:09:22;9.60;;;5.60;;
27796;SDS011;15177;50.844;4.412;2022-10-15T07:11:48;9.40;;;5.65;;
27796;SDS011;15177;50.844;4.412;2022-10-15T07:14:14;11.27;;;5.43;;
27796;SDS011;15177;50.844;4.412;2022-10-15T07:16:39;10.32;;;5.07;;
27796;SDS011;15177;50.844;4.412;2022-10-15T07:19:05;8.48;;;5.07;;
27796;SDS011;15177;50.844;4.412;2022-10-15T07:21:30;10.27;;;5.47;;
27796;SDS011;15177;50.844;4.412;2022-10-15T07:23:56;10.25;;;6.05;;
27796;SDS011;15177;50.844;4.412;2022-10-15T07:26:23;9.73;;;5.18;;
27796;SDS011;15177;50.844;4.412;2022-10-15T07:28:49;11.40;;;5.45;;
27796;SDS011;15177;50.844;4.412;2022-10-15T07:31:14;11.23;;;5.20;;
27796;SDS011;15177;50.844;4.412;2022-10-15T07:33:41;9.63;;;5.05;;
27796;SDS011;15177;50.844;4.412;2022-10-15T07:36:07;10.55;;;5.00;;
27796;SDS011;15177;50.844;4.412;2022-10-15T07:38:35;6.13;;;4.07;;
27796;SDS011;15177;50.844;4.412;2022-10-15T07:41:01;11.05;;;5.38;;
27796;SDS011;15177;50.844;4.412;2022-10-15T07:43:28;7.32;;;4.95;;
27796;SDS011;15177;50.844;4.412;2022-10-15T07:45:54;8.65;;;4.47;;
27796;SDS011;15177;50.844;4.412;2022-10-15T07:48:20;10.05;;;4.65;;
27796;SDS011;15177;50.844;4.412;2022-10-15T07:50:46;12.75;;;4.85;;
27796;SDS011;15177;50.844;4.412;2022-10-15T07:53:17;7.80;;;4.22;;
27796;SDS011;15177;50.844;4.412;2022-10-15T07:55:43;6.97;;;3.60;;
27796;SDS011;15177;50.844;4.412;2022-10-15T07:58:08;5.95;;;3.50;;
27796;SDS011;15177;50.844;4.412;2022-10-15T08:00:34;6.50;;;3.63;;
27796;SDS011;15177;50.844;4.412;2022-10-15T08:03:00;5.93;;;3.55;;
27796;SDS011;15177;50.844;4.412;2022-10-15T08:05:25;6.30;;;3.60;;
27796;SDS011;15177;50.844;4.412;2022-10-15T08:07:51;6.03;;;3.72;;
27796;SDS011;15177;50.844;4.412;2022-10-15T08:10:17;5.25;;;2.55;;
27796;SDS011;15177;50.844;4.412;2022-10-15T08:12:42;3.50;;;2.28;;
27796;SDS011;15177;50.844;4.412;2022-10-15T08:15:08;4.88;;;2.55;;
27796;SDS011;15177;50.844;4.412;2022-10-15T08:17:34;2.65;;;1.90;;
27796;SDS011;15177;50.844;4.412;2022-10-15T08:20:00;3.10;;;2.00;;
27796;SDS011;15177;50.844;4.412;2022-10-15T08:22:25;2.25;;;1.85;;
27796;SDS011;15177;50.844;4.412;2022-10-15T08:24:51;3.10;;;2.15;;
27796;SDS011;15177;50.844;4.412;2022-10-15T08:27:17;1.98;;;1.52;;
27796;SDS011;15177;50.844;4.412;2022-10-15T08:29:44;3.90;;;1.90;;
27796;SDS011;15177;50.844;4.412;2022-10-15T08:32:11;2.22;;;1.60;;
27796;SDS011;15177;50.844;4.412;2022-10-15T08:34:36;1.58;;;1.27;;
27796;SDS011;15177;50.844;4.412;2022-10-15T08:37:02;2.75;;;1.35;;
27796;SDS011;15177;50.844;4.412;2022-10-15T08:39:28;1.85;;;1.05;;
27796;SDS011;15177;50.844;4.412;2022-10-15T08:41:54;2.85;;;1.25;;
27796;SDS011;15177;50.844;4.412;2022-10-15T08:44:27;1.90;;;1.38;;
27796;SDS011;15177;50.844;4.412;2022-10-15T08:46:58;1.20;;;1.00;;
27796;SDS011;15177;50.844;4.412;2022-10-15T08:49:48;2.08;;;1.05;;
27796;SDS011;15177;50.844;4.412;2022-10-15T08:52:32;0.88;;;0.70;;
27796;SDS011;15177;50.844;4.412;2022-10-15T08:55:12;1.40;;;1.13;;
27796;SDS011;15177;50.844;4.412;2022-10-15T08:57:42;1.63;;;0.90;;
27796;SDS011;15177;50.844;4.412;2022-10-15T09:00:12;1.58;;;0.70;;
27796;SDS011;15177;50.844;4.412;2022-10-15T09:02:43;1.75;;;0.90;;
27796;SDS011;15177;50.844;4.412;2022-10-15T09:08:02;1.25;;;0.80;;
27796;SDS011;15177;50.844;4.412;2022-10-15T09:10:46;1.58;;;1.05;;
27796;SDS011;15177;50.844;4.412;2022-10-15T09:13:34;3.58;;;1.10;;
27796;SDS011;15177;50.844;4.412;2022-10-15T09:16:11;1.52;;;0.88;;
27796;SDS011;15177;50.844;4.412;2022-10-15T09:18:40;1.45;;;0.88;;
27796;SDS011;15177;50.844;4.412;2022-10-15T09:21:08;1.17;;;0.73;;
27796;SDS011;15177;50.844;4.412;2022-10-15T09:23:35;2.92;;;0.80;;
27796;SDS011;15177;50.844;4.412;2022-10-15T09:26:04;1.35;;;0.77;;
27796;SDS011;15177;50.844;4.412;2022-10-15T09:28:42;1.05;;;0.57;;
27796;SDS011;15177;50.844;4.412;2022-10-15T09:31:15;0.65;;;0.60;;
27796;SDS011;15177;50.844;4.412;2022-10-15T09:33:53;1.00;;;0.70;;
27796;SDS011;15177;50.844;4.412;2022-10-15T09:36:42;0.70;;;0.70;;
27796;SDS011;15177;50.844;4.412;2022-10-15T09:44:54;1.05;;;0.70;;
27796;SDS011;15177;50.844;4.412;2022-10-15T09:47:28;1.45;;;0.60;;
27796;SDS011;15177;50.844;4.412;2022-10-15T09:49:56;1.17;;;0.70;;
27796;SDS011;15177;50.844;4.412;2022-10-15T09:57:34;3.85;;;0.77;;
27796;SDS011;15177;50.844;4.412;2022-10-15T10:00:04;1.27;;;0.60;;
27796;SDS011;15177;50.844;4.412;2022-10-15T10:02:33;0.90;;;0.80;;
27796;SDS011;15177;50.844;4.412;2022-10-15T10:05:04;1.17;;;0.65;;
27796;SDS011;15177;50.844;4.412;2022-10-15T10:07:44;0.63;;;0.63;;
27796;SDS011;15177;50.844;4.412;2022-10-15T10:12:47;0.85;;;0.80;;
27796;SDS011;15177;50.844;4.412;2022-10-15T10:17:58;1.63;;;1.27;;
27796;SDS011;15177;50.844;4.412;2022-10-15T10:20:25;1.02;;;0.82;;
27796;SDS011;15177;50.844;4.412;2022-10-15T10:22:59;0.70;;;0.63;;
27796;SDS011;15177;50.844;4.412;2022-10-15T10:28:16;5.43;;;1.02;;
27796;SDS011;15177;50.844;4.412;2022-10-15T10:33:27;1.98;;;1.08;;
27796;SDS011;15177;50.844;4.412;2022-10-15T10:35:56;1.00;;;0.80;;
27796;SDS011;15177;50.844;4.412;2022-10-15T10:40:51;1.10;;;0.88;;
27796;SDS011;15177;50.844;4.412;2022-10-15T10:43:26;2.30;;;1.00;;
27796;SDS011;15177;50.844;4.412;2022-10-15T10:45:57;1.17;;;0.88;;
27796;SDS011;15177;50.844;4.412;2022-10-15T10:48:26;0.80;;;0.80;;
27796;SDS011;15177;50.844;4.412;2022-10-15T10:51:05;1.00;;;0.95;;
27796;SDS011;15177;50.844;4.412;2022-10-15T10:56:29;1.10;;;1.00;;
27796;SDS011;15177;50.844;4.412;2022-10-15T10:59:01;1.33;;;1.10;;
27796;SDS011;15177;50.844;4.412;2022-10-15T11:01:35;1.77;;;0.90;;
27796;SDS011;15177;50.844;4.412;2022-10-15T11:04:01;1.67;;;0.93;;
27796;SDS011;15177;50.844;4.412;2022-10-15T11:06:36;1.27;;;1.08;;
27796;SDS011;15177;50.844;4.412;2022-10-15T11:11:45;2.85;;;0.90;;
27796;SDS011;15177;50.844;4.412;2022-10-15T11:14:23;1.45;;;1.00;;
27796;SDS011;15177;50.844;4.412;2022-10-15T11:19:46;2.83;;;0.98;;
27796;SDS011;15177;50.844;4.412;2022-10-15T11:22:23;1.17;;;1.05;;
27796;SDS011;15177;50.844;4.412;2022-10-15T11:27:56;1.02;;;0.70;;
27796;SDS011;15177;50.844;4.412;2022-10-15T11:30:42;1.08;;;0.80;;
27796;SDS011;15177;50.844;4.412;2022-10-15T11:36:35;2.08;;;0.85;;
27796;SDS011;15177;50.844;4.412;2022-10-15T11:42:17;1.95;;;1.20;;
27796;SDS011;15177;50.844;4.412;2022-10-15T11:50:32;1.45;;;1.02;;
27796;SDS011;15177;50.844;4.412;2022-10-15T11:58:49;1.88;;;1.33;;
27796;SDS011;15177;50.844;4.412;2022-10-15T12:04:01;2.75;;;1.40;;
27796;SDS011;15177;50.844;4.412;2022-10-15T12:06:35;1.52;;;1.02;;
27796;SDS011;15177;50.844;4.412;2022-10-15T12:09:04;3.70;;;1.30;;
27796;SDS011;15177;50.844;4.412;2022-10-15T12:11:43;1.48;;;0.90;;
27796;SDS011;15177;50.844;4.412;2022-10-15T12:20:06;2.25;;;1.27;;
27796;SDS011;15177;50.844;4.412;2022-10-15T12:22:52;1.67;;;1.13;;
27796;SDS011;15177;50.844;4.412;2022-10-15T12:28:31;2.28;;;1.55;;
27796;SDS011;15177;50.844;4.412;2022-10-15T12:30:53;2.13;;;1.48;;
27796;SDS011;15177;50.844;4.412;2022-10-15T12:35:57;2.10;;;1.05;;
27796;SDS011;15177;50.844;4.412;2022-10-15T12:40:56;3.92;;;1.00;;
27796;SDS011;15177;50.844;4.412;2022-10-15T12:43:40;0.82;;;0.63;;
27796;SDS011;15177;50.844;4.412;2022-10-15T12:46:09;1.27;;;0.90;;
27796;SDS011;15177;50.844;4.412;2022-10-15T12:48:38;1.45;;;0.63;;
27796;SDS011;15177;50.844;4.412;2022-10-15T12:53:44;2.08;;;1.08;;
27796;SDS011;15177;50.844;4.412;2022-10-15T12:58:42;2.50;;;0.85;;
27796;SDS011;15177;50.844;4.412;2022-10-15T13:06:11;2.20;;;0.73;;
27796;SDS011;15177;50.844;4.412;2022-10-15T13:08:41;3.35;;;0.90;;
27796;SDS011;15177;50.844;4.412;2022-10-15T13:11:15;1.73;;;0.80;;
27796;SDS011;15177;50.844;4.412;2022-10-15T13:13:48;1.75;;;0.80;;
27796;SDS011;15177;50.844;4.412;2022-10-15T13:16:16;3.90;;;0.85;;
27796;SDS011;15177;50.844;4.412;2022-10-15T13:18:47;2.33;;;0.80;;
27796;SDS011;15177;50.844;4.412;2022-10-15T13:21:17;2.38;;;0.90;;
27796;SDS011;15177;50.844;4.412;2022-10-15T13:23:43;5.03;;;0.80;;
27796;SDS011;15177;50.844;4.412;2022-10-15T13:26:18;2.83;;;0.90;;
27796;SDS011;15177;50.844;4.412;2022-10-15T13:28:48;2.03;;;0.52;;
27796;SDS011;15177;50.844;4.412;2022-10-15T13:33:49;2.40;;;0.98;;
27796;SDS011;15177;50.844;4.412;2022-10-15T13:36:32;5.07;;;1.48;;
27796;SDS011;15177;50.844;4.412;2022-10-15T13:39:00;1.65;;;0.98;;
27796;SDS011;15177;50.844;4.412;2022-10-15T13:41:36;4.57;;;1.13;;
27796;SDS011;15177;50.844;4.412;2022-10-15T13:44:04;3.28;;;1.30;;
27796;SDS011;15177;50.844;4.412;2022-10-15T13:46:31;3.35;;;1.10;;
27796;SDS011;15177;50.844;4.412;2022-10-15T13:49:00;4.63;;;1.38;;
27796;SDS011;15177;50.844;4.412;2022-10-15T13:51:35;5.07;;;1.40;;
27796;SDS011;15177;50.844;4.412;2022-10-15T13:54:17;2.42;;;0.90;;
27796;SDS011;15177;50.844;4.412;2022-10-15T13:56:51;6.22;;;1.00;;
27796;SDS011;15177;50.844;4.412;2022-10-15T13:59:19;4.45;;;0.80;;
27796;SDS011;15177;50.844;4.412;2022-10-15T14:01:50;2.05;;;1.00;;
27796;SDS011;15177;50.844;4.412;2022-10-15T14:04:21;2.63;;;0.70;;
27796;SDS011;15177;50.844;4.412;2022-10-15T14:06:57;3.17;;;0.95;;
27796;SDS011;15177;50.844;4.412;2022-10-15T14:11:58;4.80;;;1.15;;
27796;SDS011;15177;50.844;4.412;2022-10-15T14:14:46;5.63;;;0.93;;
27796;SDS011;15177;50.844;4.412;2022-10-15T14:17:19;2.25;;;0.90;;
27796;SDS011;15177;50.844;4.412;2022-10-15T14:19:51;2.40;;;0.90;;
27796;SDS011;15177;50.844;4.412;2022-10-15T14:22:21;4.47;;;1.02;;
27796;SDS011;15177;50.844;4.412;2022-10-15T14:24:51;4.13;;;0.77;;
27796;SDS011;15177;50.844;4.412;2022-10-15T14:27:19;2.72;;;0.90;;
27796;SDS011;15177;50.844;4.412;2022-10-15T14:29:57;4.53;;;1.50;;
27796;SDS011;15177;50.844;4.412;2022-10-15T14:32:25;3.28;;;1.05;;
27796;SDS011;15177;50.844;4.412;2022-10-15T14:34:58;2.33;;;0.80;;
27796;SDS011;15177;50.844;4.412;2022-10-15T14:42:32;3.58;;;0.75;;
27796;SDS011;15177;50.844;4.412;2022-10-15T14:47:56;3.38;;;0.80;;
27796;SDS011;15177;50.844;4.412;2022-10-15T14:50:32;2.83;;;0.70;;
27796;SDS011;15177;50.844;4.412;2022-10-15T14:53:00;2.05;;;0.80;;
27796;SDS011;15177;50.844;4.412;2022-10-15T14:55:37;5.07;;;0.77;;
27796;SDS011;15177;50.844;4.412;2022-10-15T14:58:08;2.05;;;0.70;;
27796;SDS011;15177;50.844;4.412;2022-10-15T15:00:40;2.33;;;0.50;;
27796;SDS011;15177;50.844;4.412;2022-10-15T15:03:16;1.63;;;0.77;;
27796;SDS011;15177;50.844;4.412;2022-10-15T15:05:44;4.15;;;0.90;;
27796;SDS011;15177;50.844;4.412;2022-10-15T15:08:22;2.53;;;0.63;;
27796;SDS011;15177;50.844;4.412;2022-10-15T15:10:49;4.82;;;0.80;;
27796;SDS011;15177;50.844;4.412;2022-10-15T15:13:26;3.88;;;0.60;;
27796;SDS011;15177;50.844;4.412;2022-10-15T15:15:54;4.55;;;0.90;;
27796;SDS011;15177;50.844;4.412;2022-10-15T15:18:19;3.50;;;1.00;;
27796;SDS011;15177;50.844;4.412;2022-10-15T15:20:46;6.20;;;1.73;;
27796;SDS011;15177;50.844;4.412;2022-10-15T15:23:23;5.40;;;1.30;;
27796;SDS011;15177;50.844;4.412;2022-10-15T15:25:51;3.55;;;1.33;;
27796;SDS011;15177;50.844;4.412;2022-10-15T15:28:19;3.67;;;0.80;;
27796;SDS011;15177;50.844;4.412;2022-10-15T15:30:49;2.67;;;0.73;;
27796;SDS011;15177;50.844;4.412;2022-10-15T15:33:23;3.33;;;0.95;;
27796;SDS011;15177;50.844;4.412;2022-10-15T15:35:50;1.17;;;0.60;;
27796;SDS011;15177;50.844;4.412;2022-10-15T15:38:22;2.78;;;0.73;;
27796;SDS011;15177;50.844;4.412;2022-10-15T15:40:54;4.05;;;1.15;;
27796;SDS011;15177;50.844;4.412;2022-10-15T15:43:26;4.15;;;1.23;;
27796;SDS011;15177;50.844;4.412;2022-10-15T15:45:51;5.10;;;1.10;;
27796;SDS011;15177;50.844;4.412;2022-10-15T15:48:17;3.90;;;1.10;;
27796;SDS011;15177;50.844;4.412;2022-10-15T15:50:43;5.40;;;1.35;;
27796;SDS011;15177;50.844;4.412;2022-10-15T15:53:10;7.97;;;1.45;;
27796;SDS011;15177;50.844;4.412;2022-10-15T15:55:36;3.83;;;1.25;;
27796;SDS011;15177;50.844;4.412;2022-10-15T15:58:02;5.15;;;1.00;;
27796;SDS011;15177;50.844;4.412;2022-10-15T16:00:28;5.82;;;1.17;;
27796;SDS011;15177;50.844;4.412;2022-10-15T16:02:53;4.05;;;0.90;;
27796;SDS011;15177;50.844;4.412;2022-10-15T16:05:19;3.30;;;1.27;;
27796;SDS011;15177;50.844;4.412;2022-10-15T16:07:47;7.18;;;1.30;;
27796;SDS011;15177;50.844;4.412;2022-10-15T16:10:13;3.63;;;1.48;;
27796;SDS011;15177;50.844;4.412;2022-10-15T16:12:38;2.13;;;1.02;;
27796;SDS011;15177;50.844;4.412;2022-10-15T16:15:05;5.45;;;1.20;;
27796;SDS011;15177;50.844;4.412;2022-10-15T16:17:32;6.50;;;1.38;;
27796;SDS011;15177;50.844;4.412;2022-10-15T16:19:58;4.55;;;1.10;;
27796;SDS011;15177;50.844;4.412;2022-10-15T16:22:24;3.55;;;1.00;;
27796;SDS011;15177;50.844;4.412;2022-10-15T16:24:50;4.40;;;1.10;;
27796;SDS011;15177;50.844;4.412;2022-10-15T16:27:15;8.63;;;1.70;;
27796;SDS011;15177;50.844;4.412;2022-10-15T16:29:41;3.60;;;1.27;;
27796;SDS011;15177;50.844;4.412;2022-10-15T16:32:07;4.55;;;1.45;;
27796;SDS011;15177;50.844;4.412;2022-10-15T16:34:32;3.92;;;1.30;;
27796;SDS011;15177;50.844;4.412;2022-10-15T16:36:59;4.03;;;1.77;;
27796;SDS011;15177;50.844;4.412;2022-10-15T16:39:25;4.88;;;1.65;;
27796;SDS011;15177;50.844;4.412;2022-10-15T16:41:50;5.13;;;1.90;;
27796;SDS011;15177;50.844;4.412;2022-10-15T16:44:16;9.40;;;2.10;;
27796;SDS011;15177;50.844;4.412;2022-10-15T16:46:41;5.38;;;1.77;;
27796;SDS011;15177;50.844;4.412;2022-10-15T16:49:08;3.20;;;1.40;;
27796;SDS011;15177;50.844;4.412;2022-10-15T16:51:34;4.68;;;1.30;;